Time;durP1;ratioP1;P1;durP2;ratioP2;P2;SDS_P1;SDS_P2;PMS_P1;PMS_P2;Temp;Humidity;BMP_temperature;BMP_pressure;BME280_temperature;BME280_humidity;BME280_pressure;Samples;Min_cycle;Max_cycle;Signal;HPM_P1;HPM_P2
2021/12/14 00:00:29;;;;;;;145.46;18.92;;;;;;;1.46;100.00;96904.41;1012559;29;20650;-70
2021/12/14 00:01:17;;;;;;;112.54;16.76;;;;;;;1.48;100.00;96905.06;1015323;29;20072;-69
2021/12/14 00:01:50;;;;;;;123.96;17.18;;;;;;;1.47;100.00;96906.00;1025638;28;20023;-70
2021/12/14 00:02:24;;;;;;;132.98;19.25;;;;;;;1.47;100.00;96900.84;1026536;28;20876;-70
2021/12/14 00:02:55;;;;;;;152.00;19.58;;;;;;;1.42;100.00;96898.00;1019640;29;20331;-70
2021/12/14 00:03:26;;;;;;;105.10;17.52;;;;;;;1.37;100.00;96887.38;1023494;29;20333;-70
2021/12/14 00:04:01;;;;;;;105.38;17.40;;;;;;;1.38;100.00;96884.63;1019117;29;20028;-70
2021/12/14 00:04:33;;;;;;;138.05;19.42;;;;;;;1.44;100.00;96896.03;1022823;29;20510;-69
2021/12/14 00:05:04;;;;;;;136.10;19.77;;;;;;;1.47;100.00;96895.66;1026816;28;20313;-70
2021/12/14 00:05:35;;;;;;;143.93;18.52;;;;;;;1.50;100.00;96900.50;1028139;28;20262;-70
2021/12/14 00:06:07;;;;;;;134.18;18.45;;;;;;;1.48;100.00;96901.66;1034160;28;20053;-69
2021/12/14 00:06:38;;;;;;;144.05;17.95;;;;;;;1.42;100.00;96898.00;1026564;28;20357;-69
2021/12/14 00:07:11;;;;;;;181.55;19.83;;;;;;;1.37;100.00;96895.13;1026520;28;20827;-69
2021/12/14 00:07:41;;;;;;;146.28;18.62;;;;;;;1.35;100.00;96891.94;1023163;29;20843;-69
2021/12/14 00:08:13;;;;;;;127.38;17.75;;;;;;;1.40;100.00;96899.94;1027330;28;20073;-70
2021/12/14 00:09:03;;;;;;;136.32;18.26;;;;;;;1.43;100.00;96904.75;1026479;28;20015;-70
2021/12/14 00:09:36;;;;;;;129.98;17.80;;;;;;;1.43;100.00;96894.41;1019390;29;20075;-70
2021/12/14 00:10:26;;;;;;;191.50;22.38;;;;;;;1.43;100.00;96884.06;1024000;28;20027;-69
2021/12/14 00:11:52;;;;;;;172.22;20.14;;;;;;;1.39;100.00;96883.63;1022991;29;20037;-69
2021/12/14 00:15:26;;;;;;;204.94;20.40;;;;;;;1.34;100.00;96890.28;1038915;28;20048;-67
2021/12/14 00:15:56;;;;;;;183.25;20.08;;;;;;;1.28;100.00;96872.94;1039135;28;20048;-66
2021/12/14 00:16:27;;;;;;;226.45;20.90;;;;;;;1.34;100.00;96887.72;1034371;28;20017;-64
2021/12/14 00:16:59;;;;;;;142.38;18.83;;;;;;;1.25;100.00;96876.66;1034753;28;20705;-67
2021/12/14 00:17:35;;;;;;;158.42;20.66;;;;;;;1.26;100.00;96878.25;1030781;28;20068;-65
2021/12/14 00:18:07;;;;;;;127.82;18.02;;;;;;;1.27;100.00;96879.06;1027000;28;20066;-66
2021/12/14 00:18:38;;;;;;;163.06;21.14;;;;;;;1.35;100.00;96889.34;1026992;28;20023;-67
2021/12/14 00:19:09;;;;;;;177.45;20.77;;;;;;;1.36;100.00;96885.78;1027508;28;20023;-66
2021/12/14 00:19:39;;;;;;;169.65;20.52;;;;;;;1.36;100.00;96885.78;1026600;28;20046;-65
2021/12/14 00:20:18;;;;;;;192.50;22.67;;;;;;;1.37;100.00;96888.16;1035342;28;20515;-69
2021/12/14 00:21:10;;;;;;;203.90;19.04;;;;;;;1.35;100.00;96884.16;1040777;28;20013;-67
2021/12/14 00:21:43;;;;;;;185.34;21.54;;;;;;;1.34;100.00;96885.97;1038712;28;20104;-66
2021/12/14 00:22:21;;;;;;;183.56;20.64;;;;;;;1.37;100.00;96874.44;1031476;28;20077;-66
2021/12/14 00:24:16;;;;;;;;;;;;;;;1.37;100.00;96875.22;1031383;28;20828;-67
2021/12/14 00:24:47;;;;;;;178.82;18.92;;;;;;;1.36;100.00;96868.47;1030750;28;19992;-67
2021/12/14 00:25:17;;;;;;;156.73;18.38;;;;;;;1.39;100.00;96872.50;1026107;28;20023;-66
2021/12/14 00:25:51;;;;;;;184.45;20.50;;;;;;;1.38;100.00;96870.88;1022701;28;20034;-66
2021/12/14 00:26:22;;;;;;;194.30;18.68;;;;;;;1.36;100.00;96876.22;1023010;29;20425;-67
2021/12/14 00:26:56;;;;;;;194.13;19.95;;;;;;;1.27;100.00;96866.13;1027647;28;20019;-67
2021/12/14 00:27:26;;;;;;;225.96;20.22;;;;;;;1.31;100.00;96877.75;1030550;28;20022;-65
2021/12/14 00:27:58;;;;;;;250.35;21.83;;;;;;;1.11;100.00;96841.25;1026010;28;20460;-66
2021/12/14 00:28:31;;;;;;;257.78;21.82;;;;;;;1.28;100.00;96875.50;1033764;28;20017;-66
2021/12/14 00:29:02;;;;;;;221.08;20.64;;;;;;;1.29;100.00;96869.34;1031425;28;20030;-66
2021/12/14 00:29:47;;;;;;;223.40;22.23;;;;;;;1.25;100.00;96866.31;1027302;28;20022;-65
2021/12/14 00:30:18;;;;;;;225.26;19.04;;;;;;;1.15;100.00;96856.22;1031289;28;20037;-66
2021/12/14 00:30:49;;;;;;;190.55;19.95;;;;;;;1.22;100.00;96868.44;1031126;28;20045;-67
2021/12/14 00:31:20;;;;;;;241.36;21.92;;;;;;;1.24;100.00;96871.66;1030357;28;20039;-66
2021/12/14 00:31:50;;;;;;;182.55;20.30;;;;;;;1.17;100.00;96867.19;1027229;28;20395;-66
2021/12/14 00:32:24;;;;;;;179.75;18.92;;;;;;;1.24;100.00;96874.22;1027313;28;20033;-65
2021/12/14 00:32:54;;;;;;;179.04;20.20;;;;;;;1.27;100.00;96877.28;1027371;28;20513;-66
2021/12/14 00:33:30;;;;;;;180.38;20.35;;;;;;;1.26;100.00;96880.03;1027444;28;20022;-65
2021/12/14 00:34:03;;;;;;;196.90;20.60;;;;;;;1.27;100.00;96877.28;1028246;28;20110;-67
2021/12/14 00:34:40;;;;;;;155.62;18.32;;;;;;;1.22;100.00;96869.25;1032991;28;20030;-66
2021/12/14 00:35:12;;;;;;;172.66;18.86;;;;;;;1.29;100.00;96882.28;1030258;28;20110;-66
2021/12/14 00:35:43;;;;;;;151.68;19.04;;;;;;;1.28;100.00;96880.69;1024896;28;20089;-65
2021/12/14 00:36:13;;;;;;;217.48;20.58;;;;;;;1.27;100.00;96884.22;1022125;29;20106;-66
2021/12/14 00:36:44;;;;;;;164.18;18.35;;;;;;;1.29;100.00;96882.28;1025863;28;20599;-66
2021/12/14 00:37:23;;;;;;;187.77;21.10;;;;;;;1.25;100.00;96886.19;1035743;28;20026;-66
2021/12/14 00:37:54;;;;;;;195.72;19.74;;;;;;;1.17;100.00;96874.97;1031229;28;20011;-66
2021/12/14 00:38:24;;;;;;;194.50;19.98;;;;;;;1.27;100.00;96890.19;1035293;28;20121;-66
2021/12/14 00:38:57;;;;;;;229.85;23.30;;;;;;;1.25;100.00;96884.41;1035106;28;20033;-66
2021/12/14 00:39:27;;;;;;;167.36;20.88;;;;;;;1.20;100.00;96878.94;1028082;28;20027;-66
2021/12/14 00:39:59;;;;;;;276.45;22.65;;;;;;;1.21;100.00;96890.09;1031242;28;20046;-66
2021/12/14 00:40:38;;;;;;;213.36;23.18;;;;;;;1.27;100.00;96900.53;1030883;28;20022;-68
2021/12/14 00:41:14;;;;;;;180.57;19.13;;;;;;;1.27;100.00;96899.75;1028522;28;20031;-65
2021/12/14 00:41:44;;;;;;;213.23;19.70;;;;;;;1.22;100.00;96897.69;1031038;28;20269;-66
2021/12/14 00:42:15;;;;;;;215.02;20.75;;;;;;;1.25;100.00;96901.72;1027303;28;20345;-65
2021/12/14 00:42:45;;;;;;;222.02;22.00;;;;;;;1.22;100.00;96896.88;1023361;28;20019;-66
2021/12/14 00:43:16;;;;;;;191.85;20.70;;;;;;;1.24;100.00;96900.09;1023767;28;20023;-65
2021/12/14 00:43:46;;;;;;;249.38;22.15;;;;;;;1.15;100.00;96891.63;1027398;28;20153;-67
2021/12/14 00:44:17;;;;;;;210.63;20.13;;;;;;;1.24;100.00;96895.75;1031061;28;20037;-66
2021/12/14 00:44:47;;;;;;;237.15;19.95;;;;;;;1.27;100.00;96897.16;1022162;28;20027;-67
2021/12/14 00:45:18;;;;;;;208.90;17.58;;;;;;;1.19;100.00;96882.53;1023403;28;20272;-65
2021/12/14 00:45:48;;;;;;;270.15;22.50;;;;;;;1.25;100.00;96899.13;1027053;28;20050;-66
2021/12/14 00:46:19;;;;;;;244.93;21.25;;;;;;;1.15;100.00;96892.41;1028778;28;20034;-67
2021/12/14 00:46:50;;;;;;;211.10;19.27;;;;;;;1.20;100.00;96891.06;1031175;28;20129;-66
2021/12/14 00:47:20;;;;;;;204.13;20.10;;;;;;;1.16;100.00;96893.22;1027045;28;20019;-66
2021/12/14 00:47:51;;;;;;;213.90;19.55;;;;;;;1.18;100.00;96892.06;1019673;29;20555;-66
2021/12/14 00:48:21;;;;;;;184.48;19.17;;;;;;;1.24;100.00;96900.09;1019069;29;20031;-66
2021/12/14 00:48:52;;;;;;;154.60;17.13;;;;;;;1.09;100.00;96893.09;1027049;28;20022;-66
2021/12/14 00:49:22;;;;;;;171.45;15.63;;;;;;;0.99;100.00;96892.53;1023401;28;20059;-66
2021/12/14 00:49:54;;;;;;;158.85;15.35;;;;;;;1.00;100.00;96894.13;1022757;28;20027;-66
2021/12/14 00:50:26;;;;;;;146.10;15.98;;;;;;;1.06;100.00;96906.38;1018960;29;20027;-66
2021/12/14 00:50:58;;;;;;;102.02;13.92;;;;;;;1.06;100.00;96903.78;1027243;28;20037;-66
2021/12/14 00:51:28;;;;;;;195.54;17.26;;;;;;;0.96;100.00;96892.88;1029119;28;20578;-66
2021/12/14 00:51:59;;;;;;;155.32;17.20;;;;;;;1.05;100.00;96906.56;1023812;28;20043;-65
2021/12/14 00:52:30;;;;;;;135.65;14.85;;;;;;;1.03;100.00;96904.13;1027226;28;20579;-66
2021/12/14 00:53:00;;;;;;;128.50;14.73;;;;;;;0.94;100.00;96905.19;1021640;28;20049;-66
2021/12/14 00:53:31;;;;;;;147.07;14.23;;;;;;;0.91;100.00;96906.31;1023332;29;20039;-66
2021/12/14 00:54:04;;;;;;;118.20;12.70;;;;;;;1.00;100.00;96912.22;1022929;28;20019;-67
2021/12/14 00:54:34;;;;;;;149.28;14.02;;;;;;;0.92;100.00;96907.13;1026359;28;20050;-65
2021/12/14 00:55:06;;;;;;;186.10;16.92;;;;;;;0.92;100.00;96914.88;1026633;28;20731;-66
2021/12/14 00:55:40;;;;;;;187.08;15.96;;;;;;;0.91;100.00;96903.75;1026907;28;20113;-66
2021/12/14 00:56:11;;;;;;;173.08;15.00;;;;;;;0.78;100.00;96900.13;1027161;28;20038;-65
2021/12/14 00:56:41;;;;;;;171.74;14.92;;;;;;;0.83;100.00;96900.41;1031374;28;20037;-66
2021/12/14 00:57:12;;;;;;;181.70;15.73;;;;;;;0.87;100.00;96899.91;1034920;28;20017;-66
2021/12/14 00:57:43;;;;;;;159.20;15.82;;;;;;;0.88;100.00;96903.28;1031387;28;20480;-66
2021/12/14 00:58:14;;;;;;;171.34;16.60;;;;;;;0.80;100.00;96898.16;1022588;28;20580;-66
2021/12/14 00:58:45;;;;;;;180.92;16.24;;;;;;;0.68;100.00;96895.19;1027222;28;20042;-66
2021/12/14 00:59:15;;;;;;;191.73;16.80;;;;;;;0.77;100.00;96906.25;1030803;28;20029;-66
2021/12/14 00:59:46;;;;;;;174.77;16.33;;;;;;;0.77;100.00;96898.50;1030923;28;20105;-66
2021/12/14 01:00:18;;;;;;;152.63;15.40;;;;;;;0.82;100.00;96902.19;1023364;29;20452;-65
2021/12/14 01:00:53;;;;;;;209.78;18.48;;;;;;;0.79;100.00;96893.97;1023576;28;20493;-67
2021/12/14 01:01:25;;;;;;;180.78;15.98;;;;;;;0.76;100.00;96896.91;1034945;28;20029;-66
2021/12/14 01:02:01;;;;;;;204.16;15.74;;;;;;;0.72;100.00;96885.31;1028906;28;20023;-67
2021/12/14 01:02:31;;;;;;;184.36;16.90;;;;;;;0.76;100.00;96896.91;1030958;28;20089;-66
2021/12/14 01:03:03;;;;;;;160.35;16.00;;;;;;;0.75;100.00;96903.06;1031278;28;20096;-67
2021/12/14 01:03:34;;;;;;;158.26;15.96;;;;;;;0.63;100.00;96898.25;1028245;28;20117;-66
2021/12/14 01:04:25;;;;;;;173.20;16.06;;;;;;;0.73;100.00;96902.41;1027611;28;20077;-65
2021/12/14 01:04:57;;;;;;;169.88;15.73;;;;;;;0.76;100.00;96896.91;1022673;28;20027;-62
2021/12/14 01:05:31;;;;;;;182.92;16.24;;;;;;;0.74;100.00;96899.66;1030279;28;20108;-67
2021/12/14 01:06:02;;;;;;;170.48;15.70;;;;;;;0.76;100.00;96904.66;1030904;28;20634;-66
2021/12/14 01:06:34;;;;;;;131.82;12.85;;;;;;;0.61;100.00;96884.75;1024833;28;20059;-64
2021/12/14 01:07:05;;;;;;;161.04;14.10;;;;;;;0.62;100.00;96890.69;1023052;29;20114;-65
2021/12/14 01:07:36;;;;;;;151.92;14.28;;;;;;;0.68;100.00;96898.56;1022921;28;20485;-67
2021/12/14 01:08:08;;;;;;;132.93;13.68;;;;;;;0.67;100.00;96891.81;1022880;28;20033;-66
2021/12/14 01:08:40;;;;;;;158.88;14.40;;;;;;;0.64;100.00;96894.72;1022259;29;20027;-67
2021/12/14 01:09:16;;;;;;;205.04;17.22;;;;;;;0.72;100.00;96900.81;1018879;29;20498;-66
2021/12/14 01:09:48;;;;;;;174.76;15.28;;;;;;;0.76;100.00;96907.25;1019123;28;20484;-65
2021/12/14 01:10:23;;;;;;;139.80;14.00;;;;;;;0.67;100.00;96894.38;1017736;29;20350;-66
2021/12/14 01:11:01;;;;;;;162.42;15.88;;;;;;;0.73;100.00;96907.56;1022837;29;20031;-66
2021/12/14 01:11:38;;;;;;;145.56;14.08;;;;;;;0.67;100.00;96904.72;1018783;28;20086;-66
2021/12/14 01:12:15;;;;;;;124.42;14.24;;;;;;;0.66;100.00;96897.94;1025978;28;20508;-67
2021/12/14 01:12:51;;;;;;;126.46;14.24;;;;;;;0.72;100.00;96905.97;1030646;28;20022;-66
2021/12/14 01:13:26;;;;;;;116.40;13.80;;;;;;;0.73;100.00;96910.97;1026875;28;20027;-66
2021/12/14 01:14:03;;;;;;;127.78;15.38;;;;;;;0.72;100.00;96909.34;1028360;28;20572;-66
2021/12/14 01:15:10;;;;;;;125.86;13.08;;;;;;;0.76;100.00;96914.97;1026141;28;20031;-67
2021/12/14 01:16:54;;;;;;;120.04;13.24;;;;;;;0.77;100.00;96917.41;1031396;28;20096;-66
2021/12/14 01:17:41;;;;;;;135.16;17.46;;;;;;;0.69;100.00;96902.75;1026583;28;20039;-66
2021/12/14 01:18:34;;;;;;;161.90;18.55;;;;;;;0.74;100.00;96906.59;1030164;28;20026;-66
2021/12/14 01:19:27;;;;;;;153.22;16.22;;;;;;;0.76;100.00;96908.03;1035005;28;20033;-66
2021/12/14 01:19:59;;;;;;;168.72;16.54;;;;;;;0.78;100.00;96906.09;1037473;28;20034;-66
2021/12/14 01:20:37;;;;;;;163.72;17.10;;;;;;;0.69;100.00;96897.59;1034875;28;20061;-66
2021/12/14 01:22:33;;;;;;;154.32;17.32;;;;;;;0.75;100.00;96909.03;1023764;28;20174;-66
2021/12/14 01:23:14;;;;;;;197.10;15.38;;;;;;;0.78;100.00;96907.88;1030865;28;20018;-66
2021/12/14 01:23:45;;;;;;;206.82;17.50;;;;;;;0.81;100.00;96907.53;1026761;28;20814;-67
2021/12/14 01:25:08;;;;;;;229.32;19.34;;;;;;;0.80;100.00;96914.47;1026872;28;20094;-66
2021/12/14 01:25:27;;;;;;;206.88;18.84;;;;;;;0.77;100.00;96914.00;1024047;28;20032;-67
2021/12/14 01:26:04;;;;;;;223.24;19.70;;;;;;;0.73;100.00;96907.56;1035222;28;20444;-66
2021/12/14 01:26:37;;;;;;;210.86;19.18;;;;;;;0.69;100.00;96913.09;1032479;28;20076;-67
2021/12/14 01:27:12;;;;;;;182.26;18.06;;;;;;;0.68;100.00;96908.09;1025657;28;20520;-66
2021/12/14 01:27:57;;;;;;;199.40;17.82;;;;;;;0.67;100.00;96904.72;1023135;29;20023;-66
2021/12/14 01:28:27;;;;;;;230.96;20.86;;;;;;;0.70;100.00;96913.88;1026090;28;20023;-66
2021/12/14 01:28:58;;;;;;;219.88;20.02;;;;;;;0.70;100.00;96909.53;1037614;28;20672;-66
2021/12/14 01:29:29;;;;;;;208.07;20.52;;;;;;;0.73;100.00;96908.38;1034762;28;20105;-66
2021/12/14 01:30:06;;;;;;;171.64;16.32;;;;;;;0.69;100.00;96907.13;1034872;28;20766;-66
2021/12/14 01:30:54;;;;;;;203.60;20.36;;;;;;;0.78;100.00;96910.47;1029472;28;20023;-66
2021/12/14 01:31:32;;;;;;;220.30;20.12;;;;;;;0.77;100.00;96909.66;1033959;28;20013;-67
2021/12/14 01:32:03;;;;;;;151.30;15.84;;;;;;;0.83;100.00;96918.50;1034834;28;20134;-64
2021/12/14 01:32:38;;;;;;;209.66;19.68;;;;;;;0.80;100.00;96921.41;1039048;28;20045;-66
2021/12/14 01:33:11;;;;;;;213.38;19.88;;;;;;;0.80;100.00;96911.06;1035233;28;20037;-67
2021/12/14 01:33:44;;;;;;;236.54;20.08;;;;;;;0.82;100.00;96917.69;1030828;28;20023;-67
2021/12/14 01:34:20;;;;;;;253.58;20.96;;;;;;;0.75;100.00;96915.97;1022915;28;20015;-66
2021/12/14 01:34:50;;;;;;;220.34;19.36;;;;;;;0.81;100.00;96920.47;1027293;28;20027;-66
2021/12/14 01:35:25;;;;;;;263.23;22.42;;;;;;;0.81;100.00;96926.41;1032198;28;20023;-67
2021/12/14 01:35:56;;;;;;;263.76;19.66;;;;;;;0.78;100.00;96921.59;1033706;28;20105;-66
2021/12/14 01:36:37;;;;;;;277.58;22.55;;;;;;;0.63;100.00;96910.38;1034816;28;20455;-67
2021/12/14 01:37:14;;;;;;;282.40;20.94;;;;;;;0.70;100.00;96919.06;1031102;28;20118;-66
2021/12/14 01:37:58;;;;;;;285.42;20.80;;;;;;;0.66;100.00;96917.78;1030595;28;20034;-66
2021/12/14 01:40:06;;;;;;;216.82;20.05;;;;;;;0.74;100.00;96909.19;1023622;28;20058;-66
2021/12/14 01:40:53;;;;;;;276.38;21.48;;;;;;;0.59;100.00;96916.88;1026949;28;20138;-67
2021/12/14 01:41:23;;;;;;;226.30;18.84;;;;;;;0.54;100.00;96914.81;1019269;29;20553;-66
2021/12/14 01:42:06;;;;;;;186.95;15.65;;;;;;;0.50;100.00;96913.50;1019273;28;20034;-65
2021/12/14 01:42:38;;;;;;;221.86;19.86;;;;;;;0.46;100.00;96915.63;1028024;28;20034;-66
2021/12/14 01:43:08;;;;;;;207.82;18.52;;;;;;;0.48;100.00;96918.06;1024519;28;20098;-66
2021/12/14 01:43:46;;;;;;;202.38;18.83;;;;;;;0.47;100.00;96917.25;1022843;29;20028;-66
2021/12/14 01:44:16;;;;;;;228.48;18.58;;;;;;;0.39;100.00;96913.91;1024144;28;20420;-66
2021/12/14 01:44:53;;;;;;;253.18;19.83;;;;;;;0.36;100.00;96914.25;1030231;28;20022;-66
2021/12/14 01:45:24;;;;;;;200.18;17.52;;;;;;;0.37;100.00;96918.41;1026970;28;20090;-67
2021/12/14 01:45:55;;;;;;;224.25;18.48;;;;;;;0.39;100.00;96924.22;1022991;29;20030;-66
2021/12/14 01:46:29;;;;;;;236.84;18.70;;;;;;;0.39;100.00;96917.28;1022978;29;20055;-66
2021/12/14 01:47:08;;;;;;;236.96;20.62;;;;;;;0.44;100.00;96921.97;1022668;29;20027;-67
2021/12/14 01:47:47;;;;;;;255.30;20.48;;;;;;;0.47;100.00;96919.84;1024041;28;20444;-65
2021/12/14 01:48:18;;;;;;;219.90;20.86;;;;;;;0.52;100.00;96916.75;1026920;28;20404;-66
2021/12/14 01:48:48;;;;;;;238.10;20.42;;;;;;;0.52;100.00;96915.94;1029180;28;20101;-66
2021/12/14 01:49:19;;;;;;;244.05;22.45;;;;;;;0.56;100.00;96912.84;1028458;28;20022;-66
2021/12/14 01:49:49;;;;;;;282.70;19.63;;;;;;;0.53;100.00;96912.38;1030798;28;20575;-66
2021/12/14 01:50:25;;;;;;;240.30;20.75;;;;;;;0.49;100.00;96909.34;1034739;28;20025;-64
2021/12/14 01:50:58;;;;;;;228.68;19.36;;;;;;;0.54;100.00;96913.97;1034785;28;20041;-66
2021/12/14 01:51:31;;;;;;;266.08;21.72;;;;;;;0.52;100.00;96911.56;1035707;28;20026;-66
2021/12/14 01:52:09;;;;;;;246.82;18.88;;;;;;;0.56;100.00;96915.41;1026946;28;20023;-65
2021/12/14 01:52:40;;;;;;;237.64;19.04;;;;;;;0.49;100.00;96919.66;1022659;29;20094;-66
2021/12/14 01:53:11;;;;;;;241.15;18.77;;;;;;;0.49;100.00;96914.50;1027089;28;20057;-66
2021/12/14 01:53:43;;;;;;;251.46;22.56;;;;;;;0.44;100.00;96902.09;1030909;28;20400;-66
2021/12/14 01:54:18;;;;;;;222.04;20.38;;;;;;;0.53;100.00;96915.75;1030592;28;20033;-67
2021/12/14 01:54:52;;;;;;;163.86;17.06;;;;;;;0.49;100.00;96900.78;1033017;28;20695;-67
2021/12/14 01:55:26;;;;;;;276.90;19.50;;;;;;;0.47;100.00;96906.13;1027196;28;20027;-66
2021/12/14 01:56:01;;;;;;;188.48;18.16;;;;;;;0.55;100.00;96911.25;1030457;28;20038;-66
2021/12/14 01:56:32;;;;;;;246.72;19.24;;;;;;;0.54;100.00;96909.63;1027845;28;20026;-66
2021/12/14 01:57:07;;;;;;;227.30;20.88;;;;;;;0.55;100.00;96911.25;1019291;29;20034;-66
2021/12/14 01:57:38;;;;;;;141.00;15.72;;;;;;;0.52;100.00;96906.41;1023075;29;20031;-67
2021/12/14 01:58:08;;;;;;;175.60;20.00;;;;;;;0.47;100.00;96899.19;1023344;28;20055;-66
2021/12/14 01:58:46;;;;;;;183.38;19.30;;;;;;;0.60;100.00;96908.94;1028574;28;20023;-65
2021/12/14 01:59:25;;;;;;;265.92;20.34;;;;;;;0.59;100.00;96907.34;1026924;28;20470;-66
2021/12/14 01:59:58;;;;;;;225.70;19.12;;;;;;;0.49;100.00;96901.59;1025154;28;20130;-66
2021/12/14 02:00:35;;;;;;;259.78;19.48;;;;;;;0.43;100.00;96892.72;1023466;29;20035;-66
2021/12/14 02:01:11;;;;;;;196.72;19.60;;;;;;;0.45;100.00;96900.31;1035336;28;20076;-66
2021/12/14 02:02:08;;;;;;;217.60;19.74;;;;;;;0.52;100.00;96911.56;1035681;28;20072;-67
2021/12/14 02:02:46;;;;;;;241.18;19.44;;;;;;;0.24;100.00;96862.22;1025079;28;20405;-65
2021/12/14 02:03:16;;;;;;;284.50;22.70;;;;;;;0.55;100.00;96905.28;1025829;28;20028;-66
2021/12/14 02:04:00;;;;;;;253.00;20.27;;;;;;;0.51;100.00;96899.66;1027107;28;20054;-64
2021/12/14 02:04:30;;;;;;;278.96;20.98;;;;;;;0.56;100.00;96914.63;1026892;28;20031;-63
2021/12/14 02:05:05;;;;;;;265.75;24.92;;;;;;;0.56;100.00;96907.66;1023581;28;20477;-66
2021/12/14 02:05:38;;;;;;;242.38;21.18;;;;;;;0.51;100.00;96904.00;1028313;28;20027;-66
2021/12/14 02:06:12;;;;;;;204.58;21.12;;;;;;;0.50;100.00;96903.19;1027026;28;20536;-66
2021/12/14 02:06:43;;;;;;;233.00;20.50;;;;;;;0.59;100.00;96915.09;1028401;28;20029;-66
2021/12/14 02:07:17;;;;;;;241.93;20.70;;;;;;;0.55;100.00;96913.81;1032280;28;20041;-65
2021/12/14 02:07:47;;;;;;;285.42;24.66;;;;;;;0.47;100.00;96898.38;1024182;28;20567;-66
2021/12/14 02:08:20;;;;;;;226.38;20.90;;;;;;;0.54;100.00;96911.41;1027501;28;20085;-67
2021/12/14 02:09:08;;;;;;;242.18;22.90;;;;;;;0.57;100.00;96908.47;1027279;28;20105;-66
2021/12/14 02:09:39;;;;;;;290.08;23.08;;;;;;;0.58;100.00;96916.06;1033002;28;20038;-67
2021/12/14 02:10:21;;;;;;;257.98;20.90;;;;;;;0.53;100.00;96913.19;1026562;28;20381;-66
2021/12/14 02:10:52;;;;;;;268.44;20.68;;;;;;;0.44;100.00;96903.88;1031697;28;20089;-66
2021/12/14 02:11:23;;;;;;;256.77;19.75;;;;;;;0.50;100.00;96908.34;1031398;28;20081;-66
2021/12/14 02:11:55;;;;;;;231.57;16.27;;;;;;;0.51;100.00;96911.75;1022881;28;20278;-65
2021/12/14 02:12:26;;;;;;;227.76;20.10;;;;;;;0.54;100.00;96909.63;1023351;29;20023;-66
2021/12/14 02:12:57;;;;;;;211.80;20.34;;;;;;;0.53;100.00;96913.19;1026892;28;20022;-66
2021/12/14 02:13:33;;;;;;;232.75;19.50;;;;;;;0.58;100.00;96910.91;1025990;28;20517;-66
2021/12/14 02:14:04;;;;;;;256.54;17.54;;;;;;;0.45;100.00;96901.13;1035438;28;20029;-66
2021/12/14 02:14:34;;;;;;;217.78;15.98;;;;;;;0.50;100.00;96912.72;1034891;28;20415;-65
2021/12/14 02:15:13;;;;;;;232.18;18.55;;;;;;;0.43;100.00;96907.41;1036554;28;20026;-66
2021/12/14 02:15:43;;;;;;;209.54;15.56;;;;;;;0.43;100.00;96903.06;1031314;28;20029;-66
2021/12/14 02:16:17;;;;;;;193.80;16.30;;;;;;;0.42;100.00;96910.97;1025562;28;20038;-67
2021/12/14 02:16:49;;;;;;;239.84;19.58;;;;;;;0.40;100.00;96912.91;1027387;28;20057;-66
2021/12/14 02:17:21;;;;;;;251.02;17.02;;;;;;;0.37;100.00;96914.09;1023089;29;20089;-66
2021/12/14 02:17:52;;;;;;;258.64;19.60;;;;;;;0.38;100.00;96914.88;1024173;28;20440;-66
2021/12/14 02:18:23;;;;;;;276.75;20.85;;;;;;;0.38;100.00;96910.53;1025971;28;20142;-66
2021/12/14 02:19:00;;;;;;;282.92;20.98;;;;;;;0.34;100.00;96911.03;1023141;29;20035;-64
2021/12/14 02:19:30;;;;;;;282.30;21.14;;;;;;;0.40;100.00;96910.34;1017089;29;20056;-66
2021/12/14 02:20:01;;;;;;;235.77;19.20;;;;;;;0.43;100.00;96912.59;1022946;28;20031;-66
2021/12/14 02:20:33;;;;;;;284.98;18.77;;;;;;;0.39;100.00;96906.16;1028085;28;20073;-66
2021/12/14 02:21:09;;;;;;;241.54;19.48;;;;;;;0.43;100.00;96907.41;1035576;28;20336;-66
2021/12/14 02:21:41;;;;;;;267.78;20.28;;;;;;;0.42;100.00;96903.25;1036451;28;20052;-66
2021/12/14 02:22:11;;;;;;;295.88;19.94;;;;;;;0.41;100.00;96907.59;1027325;28;20063;-65
2021/12/14 02:22:42;;;;;;;286.90;21.90;;;;;;;0.35;100.00;96897.94;1019710;29;20040;-65
2021/12/14 02:23:12;;;;;;;306.02;20.88;;;;;;;0.36;100.00;96889.22;1023103;29;20031;-66
2021/12/14 02:23:47;;;;;;;310.75;21.83;;;;;;;0.40;100.00;96892.28;1020451;29;20126;-65
2021/12/14 02:24:19;;;;;;;279.56;20.12;;;;;;;0.41;100.00;96899.06;1023110;29;20026;-66
2021/12/14 02:24:50;;;;;;;265.22;18.62;;;;;;;0.35;100.00;96890.22;1027536;28;20088;-67
2021/12/14 02:25:20;;;;;;;257.20;18.23;;;;;;;0.40;100.00;96905.19;1036545;28;20442;-66
2021/12/14 02:25:51;;;;;;;262.58;21.23;;;;;;;0.38;100.00;96889.06;1043151;28;20029;-66
2021/12/14 02:26:25;;;;;;;342.50;26.20;;;;;;;0.41;100.00;96894.69;1033565;28;20033;-66
2021/12/14 02:26:56;;;;;;;342.22;23.98;;;;;;;0.45;100.00;96900.31;1030174;28;20425;-65
2021/12/14 02:27:35;;;;;;;310.14;22.36;;;;;;;0.44;100.00;96899.53;1031479;28;20030;-66
2021/12/14 02:28:07;;;;;;;273.44;20.10;;;;;;;0.45;100.00;96892.56;1024691;28;20122;-66
2021/12/14 02:28:38;;;;;;;192.36;17.34;;;;;;;0.44;100.00;96898.72;1025474;28;20054;-67
2021/12/14 02:29:10;;;;;;;269.95;22.30;;;;;;;0.39;100.00;96888.09;1027417;28;20023;-66
2021/12/14 02:29:44;;;;;;;285.96;22.34;;;;;;;0.48;100.00;96902.56;1026976;28;20030;-66
2021/12/14 02:30:18;;;;;;;255.06;21.00;;;;;;;0.47;100.00;96898.38;1027963;28;20560;-65
2021/12/14 02:30:51;;;;;;;223.70;20.56;;;;;;;0.49;100.00;96895.63;1030984;28;20030;-67
2021/12/14 02:31:22;;;;;;;256.06;21.78;;;;;;;0.50;100.00;96903.19;1030799;28;20034;-66
2021/12/14 02:31:56;;;;;;;243.70;20.84;;;;;;;0.49;100.00;96901.59;1039203;28;20025;-63
2021/12/14 02:32:27;;;;;;;273.40;20.84;;;;;;;0.47;100.00;96893.22;1035124;28;20034;-66
2021/12/14 02:32:58;;;;;;;216.15;19.65;;;;;;;0.46;100.00;96901.91;1035032;28;20053;-66
2021/12/14 02:33:31;;;;;;;256.88;20.15;;;;;;;0.44;100.00;96899.53;1030928;28;20015;-66
2021/12/14 02:34:04;;;;;;;186.84;17.00;;;;;;;0.42;100.00;96898.88;1023495;28;20086;-66
2021/12/14 02:34:50;;;;;;;216.16;20.66;;;;;;;0.40;100.00;96905.19;1030727;28;20036;-65
2021/12/14 02:35:22;;;;;;;214.46;17.74;;;;;;;0.31;100.00;96891.53;1030955;28;20097;-65
2021/12/14 02:35:52;;;;;;;254.26;21.22;;;;;;;0.33;100.00;96899.09;1032374;28;20122;-66
2021/12/14 02:36:28;;;;;;;255.70;20.35;;;;;;;0.28;100.00;96891.06;1027092;28;20125;-65
2021/12/14 02:36:58;;;;;;;241.38;21.00;;;;;;;0.36;100.00;96893.59;1023131;28;20033;-67
2021/12/14 02:37:43;;;;;;;241.27;20.23;;;;;;;0.34;100.00;96901.50;1023841;28;20031;-66
2021/12/14 02:38:17;;;;;;;261.78;20.90;;;;;;;0.28;100.00;96885.91;1028474;28;20150;-66
2021/12/14 02:38:49;;;;;;;299.40;20.44;;;;;;;0.34;100.00;96898.13;1036297;28;20570;-66
2021/12/14 02:41:16;;;;;;;228.06;18.80;;;;;;;0.31;100.00;96882.97;1031335;28;20029;-66
2021/12/14 02:41:22;;;;;;;341.28;21.64;;;;;;;0.35;100.00;96902.31;1024631;28;20444;-66
2021/12/14 02:41:55;;;;;;;333.42;22.80;;;;;;;0.31;100.00;96907.00;1031092;28;20022;-66
2021/12/14 02:42:26;;;;;;;315.52;21.64;;;;;;;0.33;100.00;96906.81;1031711;28;20036;-66
2021/12/14 02:42:57;;;;;;;303.40;21.67;;;;;;;0.22;100.00;96893.34;1038660;28;20116;-66
2021/12/14 02:43:36;;;;;;;370.83;24.02;;;;;;;0.19;100.00;96906.56;1031634;28;20030;-66
2021/12/14 02:44:07;;;;;;;397.86;25.42;;;;;;;0.18;100.00;96909.34;1030959;28;20022;-65
2021/12/14 02:44:37;;;;;;;288.88;20.28;;;;;;;0.08;100.00;96899.22;1026326;28;20118;-66
2021/12/14 02:45:08;;;;;;;160.60;15.57;;;;;;;0.13;100.00;96899.50;1028284;28;20033;-66
2021/12/14 02:45:38;;;;;;;337.48;26.45;;;;;;;0.14;100.00;96914.03;1030981;28;20026;-66